Aérodrome :
LOGIN :

S'inscrire | Disclaimer

   EN    FR    IT 

 










Légende :    VFR   VFR Marginal   IFR   IFR Intensif   IFR Très Intensif
Visi : 
Plafond : 
>= 8 km
>= 3000ft
5 à 8 km
1000 à 3000 ft
1500m à 5 km
500 à 1000 ft
800 à 1500m
200 à 500 ft
< 800m
< 200 ft
Symboles :   Orages  Brouillard  Fortes neiges  Fortes précipitations  Vent > 20 kt
SIGMETs :   Divers  Orages  Givrage  Turbulence  Onde Orograph.  Cendres Volcan.







- Altitude de l'aérodrome : -15 ft
- Code IATA : RTM


EHRD - Rotterdam Zestienhoven

DERNIER METAR :
  • 270255Z AUTO 07009KT 050V110 9999 NSC 18/12 Q1018 NOSIG

METARs EXPIRÉS :
  • 270225Z AUTO 06009KT 9999 NSC 17/13 Q1018 NOSIG
  • 270155Z AUTO 06008KT 9999 NSC 17/13 Q1018 NOSIG
  • 270125Z AUTO 06007KT 9999 NCD 17/13 Q1018 NOSIG
  • 270055Z AUTO 06008KT 9999 NCD 17/13 Q1018 NOSIG
  • 270025Z AUTO 06008KT 9999 NCD 17/13 Q1018 NOSIG

TAF TAF EHRD
Valide du 27 à 00h jusqu'au 28 à 06h UTC


262235Z 2700/2806 07010KT CAVOK
PROB30
TEMPO 2715/2721 15015G25KT 5000 SHRA TSRA SCT050CB
BECMG 2717/2720 11005KT
PROB30 2801/2805 4000 BR MIFG
Pas de NOTAMs connus pour ce terrain.



MET'MAP, la Météo Aéronautique d'un coup d'oeil ! - Copyright ORBIFLY Décembre 2007 - Disclaimer

ORBIFLY MET'MAP TEAM :

Programmation & Développement : Alexandra Zaïnal
Conception & Développement : Baudouin d'Aumeries
Co-Programmation & Développement : Marc-Olivier Méhu
Soutien technique & logistique : Manuel Goepfert

Contact : metmap@orbifly.com




SOURCES & CREDITS :

   NOAA